createdAt,value
2022-10-20T00:04:37.573Z,101426.53
2022-10-20T00:09:39.787Z,101429.06
2022-10-20T00:14:40.663Z,101417.03
2022-10-20T00:19:41.444Z,101417.75
2022-10-20T00:24:43.899Z,101418.66
2022-10-20T00:29:45.066Z,101406.34
2022-10-20T00:34:45.815Z,101409.19
2022-10-20T00:39:48.005Z,101392.94
2022-10-20T00:44:52.131Z,101394.72
2022-10-20T00:49:53.441Z,101385.97
2022-10-20T00:54:55.578Z,101378.25
2022-10-20T00:59:56.409Z,101373.13
2022-10-20T01:04:57.288Z,101374.94
2022-10-20T01:09:59.674Z,101362.91
2022-10-20T01:15:05.644Z,101366.56
2022-10-20T01:20:27.060Z,101351.94
2022-10-20T01:25:44.223Z,101353.88
2022-10-20T01:30:50.119Z,101341.94
2022-10-20T01:35:56.857Z,101334.94
2022-10-20T01:41:03.842Z,101327.22
2022-10-20T01:46:08.151Z,101325.28
2022-10-20T01:51:10.959Z,101316.50
2022-10-20T01:56:18.838Z,101302.91
2022-10-20T02:01:31.568Z,101295.88
2022-10-20T02:06:40.544Z,101293.25
2022-10-20T02:11:50.364Z,101282.00
2022-10-20T02:16:57.854Z,101253.56
2022-10-20T02:21:59.253Z,101244.75
2022-10-20T02:27:05.396Z,101236.03
2022-10-20T02:32:09.014Z,101222.94
2022-10-20T02:37:09.931Z,101214.16
2022-10-20T02:42:12.287Z,101205.50
2022-10-20T02:47:14.485Z,101201.94
2022-10-20T02:52:15.776Z,101195.78
2022-10-20T02:57:16.578Z,101199.22
2022-10-20T03:02:18.774Z,101190.56
2022-10-20T03:07:20.465Z,101185.31
2022-10-20T03:12:21.322Z,101185.97
2022-10-20T03:17:23.514Z,101181.72
2022-10-20T03:22:24.375Z,101174.66
2022-10-20T03:27:25.237Z,101173.66
2022-10-20T03:32:27.329Z,101178.78
2022-10-20T03:37:28.132Z,101169.38
2022-10-20T03:42:28.954Z,101168.44
2022-10-20T03:47:31.084Z,101169.31
2022-10-20T03:52:31.874Z,101170.06
2022-10-20T03:57:32.676Z,101174.41
2022-10-20T04:02:38.773Z,101174.34
2022-10-20T04:07:39.854Z,101169.94
2022-10-20T04:12:40.770Z,101164.03
2022-10-20T04:17:42.944Z,101149.38
2022-10-20T04:22:43.816Z,101147.53
2022-10-20T04:27:44.677Z,101137.22
2022-10-20T04:32:46.798Z,101139.03
2022-10-20T04:37:47.602Z,101134.78
2022-10-20T04:42:48.421Z,101128.75
2022-10-20T04:47:50.536Z,101114.84
2022-10-20T04:52:51.436Z,101120.72
2022-10-20T04:57:52.260Z,101110.28
2022-10-20T05:02:55.681Z,101094.72
2022-10-20T05:07:56.439Z,101085.25
2022-10-20T05:12:57.200Z,101089.69
2022-10-20T05:17:59.592Z,101087.09
2022-10-20T05:23:00.379Z,101087.59
2022-10-20T05:28:01.210Z,101076.72
2022-10-20T05:33:03.507Z,101073.69
2022-10-20T05:38:04.368Z,101069.06
2022-10-20T05:43:05.137Z,101062.63
2022-10-20T05:48:07.932Z,101063.81
2022-10-20T05:53:08.734Z,101056.38
2022-10-20T05:58:09.542Z,101064.47
2022-10-20T06:03:13.055Z,101066.38
2022-10-20T06:08:16.875Z,101063.09
2022-10-20T06:13:17.637Z,101071.84
2022-10-20T06:18:19.945Z,101067.69
2022-10-20T06:23:20.744Z,101066.88
2022-10-20T06:28:21.606Z,101064.38
2022-10-20T06:33:23.905Z,101067.00
2022-10-20T06:38:24.704Z,101063.63
2022-10-20T06:43:25.554Z,101065.44
2022-10-20T06:48:28.826Z,101068.03
2022-10-20T06:53:30.834Z,101072.44
2022-10-20T06:58:31.660Z,101074.19
2022-10-20T07:03:35.885Z,101084.56
2022-10-20T07:08:37.907Z,101085.47
2022-10-20T07:13:39.322Z,101077.69
2022-10-20T07:18:41.924Z,101080.31
2022-10-20T07:23:42.988Z,101072.53
2022-10-20T07:28:46.127Z,101061.25
2022-10-20T07:34:07.232Z,101063.84
2022-10-20T07:39:09.709Z,101043.94
2022-10-20T07:44:10.539Z,101041.22
2022-10-20T07:54:35.288Z,101044.50
2022-10-20T07:59:36.209Z,101040.94
2022-10-20T08:04:38.536Z,101034.78
2022-10-20T08:09:40.682Z,101025.16
2022-10-20T08:14:43.669Z,101018.19
2022-10-20T08:25:01.914Z,100991.22
2022-10-20T08:30:22.517Z,100995.53
2022-10-20T08:35:26.751Z,100983.22
2022-10-20T08:40:42.276Z,100971.03
2022-10-20T08:45:43.133Z,100973.50
2022-10-20T08:50:49.177Z,100969.03
2022-10-20T08:55:50.147Z,100975.88
2022-10-20T09:00:58.160Z,100974.84
2022-10-20T09:06:09.555Z,100973.91
2022-10-20T09:11:18.279Z,100959.06
2022-10-20T09:16:40.861Z,100964.22
2022-10-20T09:21:47.363Z,100964.09
2022-10-20T09:26:58.792Z,100962.16
2022-10-20T09:32:15.415Z,100949.03
2022-10-20T09:37:21.609Z,100954.94
2022-10-20T09:42:26.546Z,100948.88
2022-10-20T09:47:29.435Z,100941.09
2022-10-20T09:52:38.184Z,100926.09
2022-10-20T09:57:39.527Z,100926.94
2022-10-20T10:02:42.547Z,100928.56
2022-10-20T10:07:44.724Z,100929.44
2022-10-20T10:12:52.992Z,100924.84
2022-10-20T10:17:55.096Z,100912.53
2022-10-20T10:23:17.777Z,100911.41
2022-10-20T10:28:28.674Z,100905.91
2022-10-20T10:33:30.758Z,100898.06
2022-10-20T10:38:32.937Z,100890.91
2022-10-20T10:43:49.051Z,100882.84
2022-10-20T10:49:34.663Z,100889.13
2022-10-20T10:54:48.111Z,100877.41
2022-10-20T10:59:52.704Z,100859.88
2022-10-20T11:05:17.228Z,100854.00
2022-10-20T11:10:27.086Z,100849.50
2022-10-20T11:15:42.803Z,100843.16
2022-10-20T11:20:52.888Z,100838.75
2022-10-20T11:26:01.963Z,100833.13
2022-10-20T11:31:04.570Z,100827.69
2022-10-20T11:36:11.949Z,100821.34
2022-10-20T11:41:19.206Z,100809.81
2022-10-20T11:46:24.410Z,100803.56
2022-10-20T11:51:46.609Z,100813.19
2022-10-20T11:57:21.251Z,100796.69
2022-10-20T12:03:10.520Z,100797.03
2022-10-20T12:08:40.181Z,100774.81
2022-10-20T12:13:58.605Z,100781.56
2022-10-20T12:19:17.682Z,100776.88
2022-10-20T12:24:36.536Z,100764.88
2022-10-20T12:29:56.508Z,100767.50
2022-10-20T12:34:58.889Z,100756.13
2022-10-20T12:40:19.349Z,100730.81
2022-10-20T12:45:35.668Z,100739.56
2022-10-20T12:50:39.618Z,100736.56
2022-10-20T12:55:42.208Z,100718.34
2022-10-20T13:01:10.351Z,100725.22
2022-10-20T13:06:44.972Z,100722.75
2022-10-20T13:11:55.462Z,100723.16
2022-10-20T13:17:05.576Z,100719.38
2022-10-20T13:22:39.923Z,100727.31
2022-10-20T13:27:40.970Z,100717.53
2022-10-20T13:33:10.908Z,100711.88
2022-10-20T13:38:20.783Z,100698.09
2022-10-20T13:43:35.675Z,100695.81
2022-10-20T13:48:49.250Z,100683.59
2022-10-20T13:53:52.710Z,100674.50
2022-10-20T13:59:05.791Z,100668.00
2022-10-20T14:04:25.190Z,100679.09
2022-10-20T14:09:26.726Z,100686.03
2022-10-20T14:14:29.853Z,100680.63
2022-10-20T14:19:33.665Z,100673.75
2022-10-20T14:24:37.335Z,100665.38
2022-10-20T14:29:40.925Z,100665.44
2022-10-20T14:34:55.423Z,100659.53
2022-10-20T14:39:56.472Z,100660.63
2022-10-20T14:44:58.245Z,100647.91
2022-10-20T14:50:01.138Z,100639.69
2022-10-20T14:55:02.456Z,100626.91
2022-10-20T15:00:43.911Z,100634.91
2022-10-20T15:05:48.418Z,100625.22
2022-10-20T15:10:49.548Z,100640.69
2022-10-20T15:15:50.836Z,100632.03
2022-10-20T15:20:54.262Z,100627.13
2022-10-20T15:25:59.107Z,100621.47
2022-10-20T15:31:01.834Z,100631.06
2022-10-20T15:36:04.030Z,100614.81
2022-10-20T15:41:04.910Z,100603.81
2022-10-20T15:46:05.993Z,100595.38
2022-10-20T15:51:15.271Z,100593.03
2022-10-20T15:56:16.152Z,100596.63
2022-10-20T16:01:17.860Z,100595.13
2022-10-20T16:06:20.687Z,100588.22
2022-10-20T16:11:22.313Z,100587.50
2022-10-20T16:16:23.138Z,100567.78
2022-10-20T16:21:25.277Z,100582.72
2022-10-20T16:26:26.068Z,100588.16
2022-10-20T16:31:26.909Z,100597.69
2022-10-20T16:36:29.266Z,100585.59
2022-10-20T16:41:30.181Z,100596.19
2022-10-20T16:46:30.984Z,100581.50
2022-10-20T16:51:33.227Z,100572.88
2022-10-20T16:56:34.165Z,100577.28
2022-10-20T17:01:35.121Z,100583.44
2022-10-20T17:06:37.293Z,100576.53
2022-10-20T17:11:38.132Z,100556.59
2022-10-20T17:16:40.238Z,100556.59
2022-10-20T17:21:42.415Z,100558.41
2022-10-20T17:26:43.520Z,100561.75
2022-10-20T17:31:44.306Z,100563.56
2022-10-20T17:36:46.472Z,100564.38
2022-10-20T17:41:47.985Z,100565.19
2022-10-20T17:46:48.809Z,100560.81
2022-10-20T17:51:51.034Z,100567.03
2022-10-20T17:56:52.520Z,100580.84
2022-10-20T18:01:53.351Z,100558.16
2022-10-20T18:06:55.551Z,100537.34
2022-10-20T18:11:56.435Z,100539.91
2022-10-20T18:16:57.245Z,100521.75
2022-10-20T18:21:59.416Z,100519.97
2022-10-20T18:27:00.249Z,100509.66
2022-10-20T18:32:01.153Z,100492.31
2022-10-20T18:37:03.593Z,100492.31
2022-10-20T18:42:04.628Z,100496.69
2022-10-20T18:47:05.444Z,100486.28
2022-10-20T18:52:07.611Z,100462.06
2022-10-20T18:57:08.389Z,100447.91
2022-10-20T19:02:11.158Z,100461.78
2022-10-20T19:07:13.376Z,100458.31
2022-10-20T19:12:14.234Z,100459.28
2022-10-20T19:17:15.127Z,100442.84
2022-10-20T19:22:17.474Z,100453.00
2022-10-20T19:27:27.222Z,100443.44
2022-10-20T19:32:28.428Z,100435.69
2022-10-20T19:37:30.753Z,100433.22
2022-10-20T19:42:31.681Z,100424.56
2022-10-20T19:47:33.595Z,100425.25
2022-10-20T19:52:36.651Z,100422.75
2022-10-20T19:57:37.710Z,100421.84
2022-10-20T20:02:38.748Z,100409.66
2022-10-20T20:07:41.415Z,100432.25
2022-10-20T20:12:42.313Z,100441.75
2022-10-20T20:17:43.239Z,100452.16
2022-10-20T20:22:45.390Z,100455.81
2022-10-20T20:27:46.264Z,100435.84
2022-10-20T20:32:49.646Z,100426.38
2022-10-20T20:37:54.361Z,100427.09
2022-10-20T20:42:55.833Z,100426.09
2022-10-20T20:47:56.669Z,100413.88
2022-10-20T20:52:58.870Z,100418.91
2022-10-20T20:58:00.105Z,100407.63
2022-10-20T21:03:01.004Z,100404.97
2022-10-20T21:08:03.155Z,100413.47
2022-10-20T21:13:04.142Z,100411.00
2022-10-20T21:18:05.137Z,100406.72
2022-10-20T21:23:07.388Z,100418.78
2022-10-20T21:28:08.184Z,100462.31
2022-10-20T21:33:09.092Z,100456.13
2022-10-20T21:38:11.224Z,100458.63
2022-10-20T21:43:14.114Z,100480.13
2022-10-20T21:48:14.958Z,100489.63
2022-10-20T21:53:17.290Z,100493.63
2022-10-20T21:58:18.770Z,100486.56
2022-10-20T22:03:19.622Z,100494.50
2022-10-20T22:08:21.815Z,100497.00
2022-10-20T22:13:22.703Z,100484.81
2022-10-20T22:18:23.490Z,100487.47
2022-10-20T22:23:25.675Z,100485.78
2022-10-20T22:28:26.644Z,100479.72
2022-10-20T22:33:27.525Z,100475.44
2022-10-20T22:38:29.739Z,100463.22
2022-10-20T22:43:32.181Z,100483.09
2022-10-20T22:48:33.011Z,100481.34
2022-10-20T22:53:35.422Z,100468.38
2022-10-20T22:58:36.522Z,100462.31
2022-10-20T23:03:37.624Z,100446.72
2022-10-20T23:08:41.199Z,100444.91
2022-10-20T23:13:42.113Z,100436.09
2022-10-20T23:18:42.935Z,100424.69
2022-10-20T23:23:45.894Z,100424.75
2022-10-20T23:28:48.544Z,100416.00
2022-10-20T23:33:55.181Z,100408.25
2022-10-20T23:38:57.392Z,100411.59
2022-10-20T23:43:58.276Z,100425.72
2022-10-20T23:48:59.266Z,100431.78
2022-10-20T23:54:01.427Z,100429.22
2022-10-20T23:59:02.226Z,100432.56
